TAP1498 GBYD-LPPT
Flight info
| Callsign | TAP1498 |
|---|---|
| Flight time | N/A |
| Altitude | 33000 |
| Route | BJ UB600 ANITI UR975 IDINI/N0467F350 UR975 ECHED/N0453F360 DCT DOMOG DCT TAKAV DCT VATZI |
| Aircraft | A320/M-SDE3FGHIRWY/LB1 |
Departure
| Time | 2026-04-21 16:35 |
|---|---|
| Airport | Banjul International Airport (GBYD) |
Arrival
| Time | N/A |
|---|---|
| Airport | Lisbon Humberto Delgado Airport (LPPT) |
| Time | Latitude | Longitude | Altitude | Speed | Heading |
|---|---|---|---|---|---|
| 2026-04-21 16:17 | 13.34114 | -16.65133 | 102 ft | 0 kts | 130° |
| 2026-04-21 16:28 | 13.34113 | -16.65131 | 102 ft | 1 kts | 130° |
| 2026-04-21 16:29 | 13.34098 | -16.65116 | 102 ft | 7 kts | 143° |
| 2026-04-21 16:29 | 13.34008 | -16.65135 | 102 ft | 11 kts | 221° |
| 2026-04-21 16:29 | 13.33941 | -16.65195 | 100 ft | 13 kts | 221° |
| 2026-04-21 16:29 | 13.33859 | -16.65256 | 99 ft | 14 kts | 193° |
| 2026-04-21 16:30 | 13.33771 | -16.65211 | 99 ft | 14 kts | 131° |
| 2026-04-21 16:30 | 13.33703 | -16.65130 | 99 ft | 15 kts | 130° |
| 2026-04-21 16:30 | 13.33633 | -16.65046 | 98 ft | 16 kts | 130° |
| 2026-04-21 16:30 | 13.33557 | -16.64955 | 97 ft | 17 kts | 131° |
| 2026-04-21 16:31 | 13.33476 | -16.64859 | 95 ft | 17 kts | 130° |
| 2026-04-21 16:31 | 13.33396 | -16.64762 | 95 ft | 17 kts | 130° |
| 2026-04-21 16:31 | 13.33314 | -16.64666 | 95 ft | 17 kts | 131° |
| 2026-04-21 16:31 | 13.33233 | -16.64571 | 95 ft | 17 kts | 130° |
| 2026-04-21 16:32 | 13.33151 | -16.64473 | 95 ft | 18 kts | 131° |
| 2026-04-21 16:32 | 13.33058 | -16.64362 | 93 ft | 21 kts | 128° |
| 2026-04-21 16:32 | 13.32956 | -16.64237 | 91 ft | 23 kts | 127° |
| 2026-04-21 16:32 | 13.32877 | -16.64096 | 88 ft | 23 kts | 96° |
| 2026-04-21 16:33 | 13.32841 | -16.63949 | 85 ft | 21 kts | 157° |
| 2026-04-21 16:33 | 13.32754 | -16.63989 | 86 ft | 9 kts | 284° |
| 2026-04-21 16:33 | 13.32774 | -16.64021 | 87 ft | 0 kts | 308° |
| 2026-04-21 16:33 | 13.32808 | -16.64064 | 87 ft | 33 kts | 309° |
| 2026-04-21 16:34 | 13.33108 | -16.64422 | 94 ft | 96 kts | 311° |
| 2026-04-21 16:34 | 13.33669 | -16.65092 | 99 ft | 149 kts | 310° |
| 2026-04-21 16:34 | 13.34427 | -16.66009 | 174 ft | 184 kts | 309° |
| 2026-04-21 16:34 | 13.35324 | -16.67041 | 479 ft | 201 kts | 313° |
| 2026-04-21 16:35 | 13.36321 | -16.68075 | 1075 ft | 206 kts | 314° |
| 2026-04-21 16:35 | 13.37268 | -16.69161 | 1812 ft | 206 kts | 314° |
| 2026-04-21 16:35 | 13.38244 | -16.70307 | 2288 ft | 220 kts | 316° |
| 2026-04-21 16:35 | 13.39486 | -16.71302 | 2684 ft | 235 kts | 335° |
| 2026-04-21 16:36 | 13.41021 | -16.72003 | 3212 ft | 246 kts | 338° |
| 2026-04-21 16:36 | 13.42561 | -16.72802 | 3750 ft | 257 kts | 335° |
| 2026-04-21 16:36 | 13.44194 | -16.73624 | 4320 ft | 266 kts | 336° |
| 2026-04-21 16:36 | 13.45885 | -16.74464 | 4916 ft | 270 kts | 336° |
| 2026-04-21 16:37 | 13.47614 | -16.75269 | 5572 ft | 276 kts | 337° |
| 2026-04-21 16:37 | 13.49363 | -16.76107 | 6208 ft | 281 kts | 335° |
| 2026-04-21 16:37 | 13.51129 | -16.77004 | 6827 ft | 286 kts | 334° |
| 2026-04-21 16:37 | 13.52905 | -16.77945 | 7475 ft | 289 kts | 332° |
| 2026-04-21 16:38 | 13.54693 | -16.78924 | 8114 ft | 293 kts | 332° |
| 2026-04-21 16:38 | 13.56499 | -16.79928 | 8756 ft | 297 kts | 331° |
| 2026-04-21 16:38 | 13.58312 | -16.80946 | 9383 ft | 300 kts | 331° |
| 2026-04-21 16:38 | 13.60159 | -16.81991 | 9993 ft | 303 kts | 330° |
| 2026-04-21 16:39 | 13.62026 | -16.83050 | 10404 ft | 314 kts | 330° |
| 2026-04-21 16:39 | 13.63995 | -16.84169 | 10703 ft | 330 kts | 330° |
| 2026-04-21 16:39 | 13.66043 | -16.85337 | 10962 ft | 345 kts | 330° |
| 2026-04-21 16:39 | 13.68212 | -16.86574 | 11182 ft | 360 kts | 330° |
| 2026-04-21 16:40 | 13.70439 | -16.87843 | 11476 ft | 374 kts | 330° |
| 2026-04-21 16:40 | 13.72756 | -16.89163 | 11861 ft | 384 kts | 329° |
| 2026-04-21 16:40 | 13.75110 | -16.90505 | 12381 ft | 387 kts | 329° |
| 2026-04-21 16:40 | 13.77468 | -16.91850 | 12996 ft | 389 kts | 329° |
| 2026-04-21 16:41 | 13.79070 | -16.92764 | 13399 ft | 390 kts | 329° |
| 2026-04-21 16:41 | 13.82224 | -16.94560 | 14118 ft | 393 kts | 329° |
| 2026-04-21 16:41 | 13.84632 | -16.95937 | 14647 ft | 395 kts | 329° |
| 2026-04-21 16:41 | 13.87049 | -16.97318 | 15128 ft | 398 kts | 329° |
| 2026-04-21 16:42 | 13.89470 | -16.98698 | 15672 ft | 399 kts | 328° |
| 2026-04-21 16:42 | 13.91920 | -17.00097 | 16195 ft | 401 kts | 328° |
| 2026-04-21 16:42 | 13.94344 | -17.01481 | 16664 ft | 403 kts | 328° |
| 2026-04-21 16:42 | 13.96809 | -17.02891 | 17141 ft | 405 kts | 328° |
| 2026-04-21 16:43 | 13.99295 | -17.04312 | 17630 ft | 407 kts | 328° |
| 2026-04-21 16:43 | 14.01764 | -17.05724 | 18085 ft | 408 kts | 328° |
| 2026-04-21 16:43 | 14.04255 | -17.07153 | 18534 ft | 409 kts | 328° |
| 2026-04-21 16:43 | 14.06768 | -17.08592 | 18955 ft | 411 kts | 328° |
| 2026-04-21 16:44 | 14.09255 | -17.10017 | 19379 ft | 411 kts | 328° |
| 2026-04-21 16:44 | 14.11761 | -17.11453 | 19770 ft | 412 kts | 328° |
| 2026-04-21 16:44 | 14.14286 | -17.12899 | 20165 ft | 413 kts | 328° |
| 2026-04-21 16:44 | 14.16769 | -17.14322 | 20529 ft | 414 kts | 328° |
| 2026-04-21 16:45 | 14.19298 | -17.15770 | 20904 ft | 414 kts | 328° |
| 2026-04-21 16:45 | 14.21839 | -17.17226 | 21274 ft | 414 kts | 328° |
| 2026-04-21 16:45 | 14.24357 | -17.18669 | 21628 ft | 414 kts | 328° |
| 2026-04-21 16:45 | 14.26871 | -17.20111 | 21955 ft | 415 kts | 328° |
| 2026-04-21 16:46 | 14.29402 | -17.21563 | 22244 ft | 416 kts | 329° |
| 2026-04-21 16:46 | 14.31930 | -17.23011 | 22586 ft | 416 kts | 328° |
| 2026-04-21 16:46 | 14.34446 | -17.24453 | 22906 ft | 417 kts | 328° |
| 2026-04-21 16:46 | 14.37000 | -17.25918 | 23194 ft | 418 kts | 328° |
| 2026-04-21 16:47 | 14.39564 | -17.27391 | 23468 ft | 420 kts | 328° |
| 2026-04-21 16:47 | 14.42101 | -17.28849 | 23799 ft | 420 kts | 328° |
| 2026-04-21 16:47 | 14.44671 | -17.30326 | 24105 ft | 421 kts | 328° |
| 2026-04-21 16:47 | 14.47248 | -17.31807 | 24378 ft | 423 kts | 328° |
| 2026-04-21 16:48 | 14.49827 | -17.33289 | 24629 ft | 425 kts | 328° |
| 2026-04-21 16:48 | 14.52394 | -17.34766 | 24870 ft | 427 kts | 328° |
| 2026-04-21 16:48 | 14.55009 | -17.36270 | 25120 ft | 428 kts | 328° |
| 2026-04-21 16:48 | 14.57626 | -17.37776 | 25392 ft | 429 kts | 328° |
| 2026-04-21 16:49 | 14.60219 | -17.39269 | 25654 ft | 430 kts | 327° |
| 2026-04-21 16:49 | 14.62855 | -17.40786 | 25869 ft | 431 kts | 327° |
| 2026-04-21 16:49 | 14.65494 | -17.42308 | 26071 ft | 433 kts | 328° |
| 2026-04-21 16:49 | 14.68118 | -17.43812 | 26282 ft | 435 kts | 328° |
| 2026-04-21 16:50 | 14.70974 | -17.44945 | 26420 ft | 445 kts | 343° |
| 2026-04-21 16:50 | 14.74112 | -17.45222 | 26607 ft | 457 kts | 358° |
| 2026-04-21 16:50 | 14.77247 | -17.44623 | 26774 ft | 470 kts | 13° |
| 2026-04-21 16:50 | 14.80211 | -17.43111 | 26926 ft | 485 kts | 28° |
| 2026-04-21 16:51 | 14.82950 | -17.41027 | 27225 ft | 485 kts | 31° |
| 2026-04-21 16:51 | 14.85661 | -17.38913 | 27498 ft | 484 kts | 31° |
| 2026-04-21 16:51 | 14.88329 | -17.36835 | 27729 ft | 484 kts | 31° |
| 2026-04-21 16:51 | 14.91028 | -17.34733 | 27941 ft | 484 kts | 31° |
| 2026-04-21 16:52 | 14.93725 | -17.32636 | 28147 ft | 485 kts | 31° |
| 2026-04-21 16:52 | 14.96408 | -17.30551 | 28395 ft | 484 kts | 30° |
| 2026-04-21 16:52 | 14.98209 | -17.29151 | 28583 ft | 483 kts | 30° |
| 2026-04-21 16:52 | 15.01772 | -17.26383 | 28952 ft | 481 kts | 31° |
| 2026-04-21 16:53 | 15.04439 | -17.24314 | 29124 ft | 483 kts | 30° |
| 2026-04-21 16:53 | 15.07160 | -17.22201 | 29298 ft | 484 kts | 31° |
| 2026-04-21 16:53 | 15.09840 | -17.20118 | 29525 ft | 485 kts | 31° |
| 2026-04-21 16:53 | 15.12538 | -17.18022 | 29736 ft | 486 kts | 31° |
| 2026-04-21 16:54 | 15.15257 | -17.15907 | 29920 ft | 487 kts | 31° |
| 2026-04-21 16:54 | 15.17973 | -17.13793 | 30144 ft | 488 kts | 31° |
| 2026-04-21 16:54 | 15.20655 | -17.11706 | 30375 ft | 488 kts | 31° |
| 2026-04-21 16:54 | 15.23386 | -17.09580 | 30632 ft | 488 kts | 31° |
| 2026-04-21 16:55 | 15.26088 | -17.07475 | 30887 ft | 488 kts | 31° |
| 2026-04-21 16:55 | 15.28815 | -17.05351 | 31126 ft | 488 kts | 31° |
| 2026-04-21 16:55 | 15.31513 | -17.03246 | 31323 ft | 490 kts | 31° |
| 2026-04-21 16:55 | 15.34261 | -17.01104 | 31512 ft | 491 kts | 31° |
| 2026-04-21 16:56 | 15.36989 | -16.98976 | 31713 ft | 492 kts | 31° |
| 2026-04-21 16:56 | 15.39736 | -16.96835 | 31875 ft | 494 kts | 31° |
| 2026-04-21 16:56 | 15.42498 | -16.94682 | 32015 ft | 496 kts | 31° |
| 2026-04-21 16:56 | 15.45241 | -16.92541 | 32171 ft | 497 kts | 31° |
| 2026-04-21 16:57 | 15.48020 | -16.90370 | 32318 ft | 499 kts | 31° |
| 2026-04-21 16:57 | 15.50777 | -16.88216 | 32465 ft | 501 kts | 31° |
| 2026-04-21 16:57 | 15.53576 | -16.86028 | 32598 ft | 502 kts | 31° |
| 2026-04-21 16:57 | 15.56366 | -16.83848 | 32776 ft | 503 kts | 31° |
| 2026-04-21 16:58 | 15.59176 | -16.81650 | 32851 ft | 505 kts | 31° |
| 2026-04-21 16:58 | 15.64786 | -16.77259 | 32849 ft | 506 kts | 31° |
| 2026-04-21 16:59 | 15.70389 | -16.72869 | 32847 ft | 505 kts | 31° |
| 2026-04-21 16:59 | 15.75991 | -16.68479 | 32846 ft | 506 kts | 31° |
| 2026-04-21 17:00 | 15.81620 | -16.64062 | 32847 ft | 506 kts | 31° |
| 2026-04-21 17:00 | 15.86273 | -16.60411 | 32846 ft | 505 kts | 31° |
| 2026-04-21 17:01 | 15.92849 | -16.55245 | 32851 ft | 507 kts | 31° |
| 2026-04-21 17:01 | 15.98465 | -16.50828 | 32849 ft | 507 kts | 31° |
| 2026-04-21 17:02 | 16.04090 | -16.46401 | 32853 ft | 507 kts | 31° |
| 2026-04-21 17:02 | 16.09765 | -16.42109 | 32851 ft | 504 kts | 29° |
| 2026-04-21 17:03 | 16.15539 | -16.37880 | 32852 ft | 505 kts | 29° |
| 2026-04-21 17:03 | 16.21252 | -16.33669 | 32841 ft | 504 kts | 29° |
| 2026-04-21 17:04 | 16.26968 | -16.29437 | 32840 ft | 505 kts | 29° |
| 2026-04-21 17:04 | 16.32709 | -16.25178 | 32829 ft | 506 kts | 29° |
| 2026-04-21 17:05 | 16.38420 | -16.20936 | 32829 ft | 505 kts | 29° |
| 2026-04-21 17:05 | 16.44167 | -16.16661 | 32834 ft | 505 kts | 29° |
| 2026-04-21 17:06 | 16.49862 | -16.12426 | 32825 ft | 505 kts | 29° |
| 2026-04-21 17:06 | 16.55600 | -16.08160 | 32829 ft | 503 kts | 28° |
| 2026-04-21 17:07 | 16.60323 | -16.04648 | 32829 ft | 503 kts | 28° |
| 2026-04-21 17:07 | 16.66999 | -15.99676 | 32831 ft | 504 kts | 28° |
| 2026-04-21 17:08 | 16.72678 | -15.95439 | 32835 ft | 503 kts | 28° |
| 2026-04-21 17:08 | 16.78379 | -15.91179 | 32832 ft | 502 kts | 28° |
| 2026-04-21 17:09 | 16.86880 | -15.84827 | 32834 ft | 502 kts | 28° |
| 2026-04-21 17:09 | 16.92585 | -15.80559 | 32830 ft | 503 kts | 28° |
| 2026-04-21 17:10 | 16.98250 | -15.76313 | 32835 ft | 501 kts | 28° |
| 2026-04-21 17:10 | 17.03879 | -15.72091 | 32828 ft | 500 kts | 27° |
| 2026-04-21 17:11 | 17.09564 | -15.67827 | 32820 ft | 500 kts | 27° |
| 2026-04-21 17:11 | 17.15216 | -15.63594 | 32817 ft | 500 kts | 27° |
| 2026-04-21 17:12 | 17.20851 | -15.59370 | 32822 ft | 499 kts | 27° |
| 2026-04-21 17:12 | 17.26473 | -15.55150 | 32820 ft | 499 kts | 27° |
| 2026-04-21 17:13 | 17.32122 | -15.50902 | 32817 ft | 499 kts | 27° |
| 2026-04-21 17:13 | 17.37758 | -15.46660 | 32817 ft | 500 kts | 27° |
| 2026-04-21 17:14 | 17.43401 | -15.42406 | 32812 ft | 499 kts | 27° |
| 2026-04-21 17:14 | 17.49048 | -15.38147 | 32815 ft | 498 kts | 27° |
| 2026-04-21 17:15 | 17.54671 | -15.33906 | 32807 ft | 497 kts | 27° |
| 2026-04-21 17:15 | 17.60285 | -15.29665 | 32815 ft | 499 kts | 27° |
| 2026-04-21 17:16 | 17.65884 | -15.25432 | 32818 ft | 498 kts | 27° |
| 2026-04-21 17:16 | 17.71519 | -15.21183 | 32814 ft | 498 kts | 27° |
| 2026-04-21 17:17 | 17.77153 | -15.16927 | 32811 ft | 497 kts | 27° |
| 2026-04-21 17:17 | 17.82758 | -15.12686 | 32815 ft | 496 kts | 27° |
| 2026-04-21 17:18 | 17.88353 | -15.08464 | 32811 ft | 496 kts | 27° |
| 2026-04-21 17:18 | 17.93956 | -15.04235 | 32799 ft | 496 kts | 27° |
| 2026-04-21 17:19 | 17.99555 | -15.00000 | 32791 ft | 496 kts | 27° |
| 2026-04-21 17:19 | 18.05125 | -14.95784 | 32784 ft | 495 kts | 27° |
| 2026-04-21 17:20 | 18.10711 | -14.91545 | 32785 ft | 495 kts | 27° |
| 2026-04-21 17:20 | 18.16304 | -14.87304 | 32789 ft | 496 kts | 26° |
| 2026-04-21 17:21 | 18.21905 | -14.83049 | 32788 ft | 494 kts | 27° |
| 2026-04-21 17:21 | 18.27470 | -14.78820 | 32788 ft | 493 kts | 27° |
| 2026-04-21 17:22 | 18.33033 | -14.74590 | 32791 ft | 495 kts | 27° |
| 2026-04-21 17:22 | 18.38606 | -14.70346 | 32799 ft | 494 kts | 27° |
| 2026-04-21 17:23 | 18.44180 | -14.66100 | 32805 ft | 496 kts | 27° |
| 2026-04-21 17:23 | 18.49739 | -14.61859 | 32801 ft | 494 kts | 26° |
| 2026-04-21 17:24 | 18.55305 | -14.57614 | 32803 ft | 494 kts | 27° |
| 2026-04-21 17:24 | 18.60884 | -14.53351 | 32805 ft | 492 kts | 27° |
| 2026-04-21 17:25 | 18.66412 | -14.49124 | 32806 ft | 492 kts | 26° |
| 2026-04-21 17:25 | 18.71957 | -14.44885 | 32809 ft | 493 kts | 27° |
| 2026-04-21 17:26 | 18.77504 | -14.40638 | 32808 ft | 493 kts | 27° |
| 2026-04-21 17:26 | 18.83073 | -14.36372 | 32809 ft | 494 kts | 27° |
| 2026-04-21 17:27 | 18.88634 | -14.32107 | 32810 ft | 494 kts | 27° |
| 2026-04-21 17:27 | 18.94181 | -14.27846 | 32810 ft | 493 kts | 27° |
| 2026-04-21 17:28 | 18.99726 | -14.23584 | 32804 ft | 492 kts | 27° |
| 2026-04-21 17:28 | 19.05227 | -14.19355 | 32813 ft | 491 kts | 27° |
| 2026-04-21 17:29 | 19.10777 | -14.15087 | 32808 ft | 495 kts | 27° |
| 2026-04-21 17:29 | 19.16355 | -14.10789 | 32807 ft | 494 kts | 26° |
| 2026-04-21 17:30 | 19.21900 | -14.06513 | 32821 ft | 494 kts | 26° |
| 2026-04-21 17:30 | 19.27438 | -14.02241 | 32828 ft | 492 kts | 26° |
| 2026-04-21 17:31 | 19.32974 | -13.97969 | 32829 ft | 495 kts | 26° |
| 2026-04-21 17:31 | 19.38556 | -13.93655 | 32831 ft | 495 kts | 26° |
| 2026-04-21 17:32 | 19.44092 | -13.89373 | 32828 ft | 494 kts | 26° |
| 2026-04-21 17:32 | 19.49672 | -13.85052 | 32829 ft | 494 kts | 26° |
| 2026-04-21 17:33 | 19.55206 | -13.80764 | 32826 ft | 495 kts | 26° |
| 2026-04-21 17:33 | 19.60789 | -13.76438 | 32825 ft | 496 kts | 26° |
| 2026-04-21 17:34 | 19.66358 | -13.72109 | 32825 ft | 496 kts | 26° |
| 2026-04-21 17:34 | 19.71917 | -13.67794 | 32818 ft | 497 kts | 26° |
| 2026-04-21 17:35 | 19.77468 | -13.63481 | 32820 ft | 498 kts | 26° |
| 2026-04-21 17:35 | 19.83081 | -13.59108 | 32824 ft | 498 kts | 26° |
| 2026-04-21 17:36 | 19.88641 | -13.54777 | 32835 ft | 498 kts | 26° |
| 2026-04-21 17:36 | 19.94272 | -13.50387 | 32851 ft | 499 kts | 25° |
| 2026-04-21 17:37 | 19.99840 | -13.46042 | 32867 ft | 499 kts | 26° |
| 2026-04-21 17:37 | 20.05443 | -13.41666 | 32865 ft | 499 kts | 25° |
| 2026-04-21 17:38 | 20.11023 | -13.37303 | 32856 ft | 501 kts | 25° |
| 2026-04-21 17:38 | 20.16639 | -13.32905 | 32840 ft | 498 kts | 26° |
| 2026-04-21 17:39 | 20.22218 | -13.28535 | 32838 ft | 499 kts | 26° |
| 2026-04-21 17:39 | 20.27821 | -13.24140 | 32835 ft | 498 kts | 26° |
| 2026-04-21 17:40 | 20.33381 | -13.19774 | 32838 ft | 499 kts | 25° |
| 2026-04-21 17:40 | 20.38979 | -13.15375 | 32847 ft | 500 kts | 25° |
| 2026-04-21 17:41 | 20.44603 | -13.11132 | 32853 ft | 492 kts | 21° |
| 2026-04-21 17:41 | 20.50538 | -13.07657 | 32864 ft | 481 kts | 13° |
| 2026-04-21 17:42 | 20.56644 | -13.05075 | 32868 ft | 467 kts | 6° |
| 2026-04-21 17:42 | 20.62901 | -13.03254 | 32872 ft | 460 kts | 1° |
| 2026-04-21 17:43 | 20.69103 | -13.01632 | 32875 ft | 460 kts | 2° |
| 2026-04-21 17:43 | 20.75326 | -13.00001 | 32878 ft | 460 kts | 2° |
| 2026-04-21 17:44 | 20.81519 | -12.98363 | 32882 ft | 459 kts | 1° |
| 2026-04-21 17:44 | 20.87723 | -12.96724 | 32887 ft | 461 kts | 1° |
| 2026-04-21 17:45 | 20.93960 | -12.95071 | 32892 ft | 460 kts | 1° |
| 2026-04-21 17:45 | 21.00192 | -12.93416 | 32896 ft | 457 kts | 1° |
| 2026-04-21 17:46 | 21.06387 | -12.91770 | 32903 ft | 459 kts | 1° |
| 2026-04-21 17:46 | 21.12575 | -12.90124 | 32900 ft | 457 kts | 1° |
| 2026-04-21 17:47 | 21.18747 | -12.88483 | 32899 ft | 457 kts | 1° |
| 2026-04-21 17:47 | 21.24926 | -12.86835 | 32890 ft | 456 kts | 1° |
| 2026-04-21 17:48 | 21.31084 | -12.85195 | 32880 ft | 454 kts | 1° |
| 2026-04-21 17:48 | 21.37241 | -12.83552 | 32871 ft | 453 kts | 1° |
| 2026-04-21 17:49 | 21.43370 | -12.81918 | 32864 ft | 454 kts | 0° |
| 2026-04-21 17:49 | 21.49518 | -12.80276 | 32859 ft | 453 kts | 0° |
| 2026-04-21 17:50 | 21.55586 | -12.78650 | 32863 ft | 450 kts | 0° |
| 2026-04-21 17:50 | 21.61675 | -12.77022 | 32870 ft | 452 kts | 0° |
| 2026-04-21 17:51 | 21.67771 | -12.75390 | 32883 ft | 451 kts | 0° |
| 2026-04-21 17:51 | 21.73857 | -12.73758 | 32882 ft | 449 kts | 360° |
| 2026-04-21 17:52 | 21.79982 | -12.72115 | 32882 ft | 452 kts | 360° |
| 2026-04-21 17:52 | 21.86069 | -12.70478 | 32883 ft | 449 kts | 360° |
| 2026-04-21 17:53 | 21.92145 | -12.68846 | 32879 ft | 451 kts | 359° |
| 2026-04-21 17:53 | 21.98228 | -12.67208 | 32880 ft | 448 kts | 359° |
| 2026-04-21 17:54 | 22.04265 | -12.65579 | 32880 ft | 447 kts | 359° |
| 2026-04-21 17:54 | 22.10327 | -12.63949 | 32880 ft | 446 kts | 359° |
| 2026-04-21 17:55 | 22.16330 | -12.62331 | 32880 ft | 447 kts | 360° |
| 2026-04-21 17:55 | 22.22372 | -12.60703 | 32872 ft | 448 kts | 359° |
| 2026-04-21 17:56 | 22.28449 | -12.59061 | 32875 ft | 450 kts | 360° |
| 2026-04-21 17:56 | 22.34542 | -12.57409 | 32889 ft | 447 kts | 360° |
| 2026-04-21 17:57 | 22.40560 | -12.55779 | 32877 ft | 449 kts | 0° |
| 2026-04-21 17:57 | 22.46651 | -12.54129 | 32872 ft | 449 kts | 0° |
| 2026-04-21 17:58 | 22.52731 | -12.52478 | 32874 ft | 449 kts | 360° |
| 2026-04-21 17:58 | 22.58806 | -12.50830 | 32876 ft | 451 kts | 0° |
| 2026-04-21 17:59 | 22.64901 | -12.49169 | 32880 ft | 450 kts | 0° |
| 2026-04-21 17:59 | 22.70985 | -12.47510 | 32891 ft | 450 kts | 1° |
| 2026-04-21 18:00 | 22.77035 | -12.45747 | 32883 ft | 455 kts | 4° |
| 2026-04-21 18:00 | 22.83095 | -12.43582 | 32880 ft | 461 kts | 5° |
| 2026-04-21 18:01 | 22.89183 | -12.41356 | 32899 ft | 461 kts | 5° |
| 2026-04-21 18:01 | 22.95284 | -12.39131 | 32885 ft | 462 kts | 6° |
| 2026-04-21 18:02 | 23.01374 | -12.36902 | 32887 ft | 463 kts | 5° |
| 2026-04-21 18:02 | 23.07472 | -12.34676 | 32874 ft | 461 kts | 6° |
| 2026-04-21 18:03 | 23.13561 | -12.32448 | 32901 ft | 462 kts | 6° |
| 2026-04-21 18:03 | 23.19678 | -12.30211 | 32898 ft | 462 kts | 6° |
| 2026-04-21 18:04 | 23.25755 | -12.27986 | 32902 ft | 463 kts | 7° |
| 2026-04-21 18:04 | 23.31881 | -12.25737 | 32887 ft | 462 kts | 7° |
| 2026-04-21 18:05 | 23.37971 | -12.23499 | 32876 ft | 464 kts | 7° |
| 2026-04-21 18:05 | 23.44093 | -12.21248 | 32896 ft | 465 kts | 7° |
| 2026-04-21 18:06 | 23.50213 | -12.19002 | 32873 ft | 461 kts | 7° |
| 2026-04-21 18:06 | 23.56287 | -12.16774 | 32889 ft | 463 kts | 8° |
| 2026-04-21 18:07 | 23.62425 | -12.14518 | 32884 ft | 462 kts | 8° |
| 2026-04-21 18:07 | 23.68572 | -12.12250 | 32878 ft | 465 kts | 8° |
| 2026-04-21 18:08 | 23.74686 | -12.09993 | 32893 ft | 465 kts | 8° |
| 2026-04-21 18:08 | 23.80796 | -12.07733 | 32855 ft | 464 kts | 8° |
| 2026-04-21 18:09 | 23.86916 | -12.05470 | 32886 ft | 466 kts | 8° |
| 2026-04-21 18:09 | 23.93092 | -12.03187 | 32907 ft | 467 kts | 9° |
| 2026-04-21 18:10 | 23.99230 | -12.00910 | 32876 ft | 467 kts | 9° |
| 2026-04-21 18:10 | 24.05397 | -11.98621 | 32868 ft | 467 kts | 9° |
| 2026-04-21 18:11 | 24.11539 | -11.96337 | 32882 ft | 466 kts | 9° |
| 2026-04-21 18:11 | 24.17674 | -11.94055 | 32883 ft | 466 kts | 9° |
| 2026-04-21 18:12 | 24.23839 | -11.91765 | 32887 ft | 468 kts | 10° |
| 2026-04-21 18:12 | 24.29999 | -11.89470 | 32887 ft | 468 kts | 10° |
| 2026-04-21 18:13 | 24.36209 | -11.87156 | 32882 ft | 470 kts | 10° |